sensor_id;sensor_type;location;lat;lon;timestamp;temperature;humidity
2873;DHT22;1444;49.166;7.312;2023-01-19T00:02:23;2.20;99.90
2873;DHT22;1444;49.166;7.312;2023-01-19T00:04:50;2.20;99.90
2873;DHT22;1444;49.166;7.312;2023-01-19T00:07:18;2.30;99.90
2873;DHT22;1444;49.166;7.312;2023-01-19T00:09:44;2.20;99.90
2873;DHT22;1444;49.166;7.312;2023-01-19T00:12:11;2.20;99.90
2873;DHT22;1444;49.166;7.312;2023-01-19T00:14:38;2.20;99.90
2873;DHT22;1444;49.166;7.312;2023-01-19T00:17:04;2.20;99.90
2873;DHT22;1444;49.166;7.312;2023-01-19T00:21:58;2.10;99.90
2873;DHT22;1444;49.166;7.312;2023-01-19T00:24:26;2.10;99.90
2873;DHT22;1444;49.166;7.312;2023-01-19T00:26:53;2.10;99.90
2873;DHT22;1444;49.166;7.312;2023-01-19T00:29:20;2.10;99.90
2873;DHT22;1444;49.166;7.312;2023-01-19T00:31:46;2.20;99.90
2873;DHT22;1444;49.166;7.312;2023-01-19T00:34:13;2.00;99.90
2873;DHT22;1444;49.166;7.312;2023-01-19T00:36:40;2.10;99.90
2873;DHT22;1444;49.166;7.312;2023-01-19T00:39:06;2.20;99.90
2873;DHT22;1444;49.166;7.312;2023-01-19T00:44:19;2.10;99.90
2873;DHT22;1444;49.166;7.312;2023-01-19T00:46:46;2.20;99.90
2873;DHT22;1444;49.166;7.312;2023-01-19T00:49:13;2.20;99.90
2873;DHT22;1444;49.166;7.312;2023-01-19T00:51:39;2.20;99.90
2873;DHT22;1444;49.166;7.312;2023-01-19T00:54:06;2.10;99.90
2873;DHT22;1444;49.166;7.312;2023-01-19T00:56:36;2.10;99.90
2873;DHT22;1444;49.166;7.312;2023-01-19T00:59:03;2.10;99.90
2873;DHT22;1444;49.166;7.312;2023-01-19T01:01:30;2.00;99.90
2873;DHT22;1444;49.166;7.312;2023-01-19T01:03:57;1.90;99.90
2873;DHT22;1444;49.166;7.312;2023-01-19T01:06:23;1.90;99.90
2873;DHT22;1444;49.166;7.312;2023-01-19T01:08:50;1.90;99.90
2873;DHT22;1444;49.166;7.312;2023-01-19T01:13:46;1.90;99.90
2873;DHT22;1444;49.166;7.312;2023-01-19T01:16:13;1.80;99.90
2873;DHT22;1444;49.166;7.312;2023-01-19T01:18:40;1.90;99.90
2873;DHT22;1444;49.166;7.312;2023-01-19T01:21:08;1.90;99.90
2873;DHT22;1444;49.166;7.312;2023-01-19T01:23:35;1.90;99.90
2873;DHT22;1444;49.166;7.312;2023-01-19T01:26:02;1.90;99.90
2873;DHT22;1444;49.166;7.312;2023-01-19T01:28:29;-1.70;99.90
2873;DHT22;1444;49.166;7.312;2023-01-19T01:30:57;1.90;99.90
2873;DHT22;1444;49.166;7.312;2023-01-19T01:33:24;2.00;99.90
2873;DHT22;1444;49.166;7.312;2023-01-19T01:35:51;2.00;99.90
2873;DHT22;1444;49.166;7.312;2023-01-19T01:38:18;2.00;99.90
2873;DHT22;1444;49.166;7.312;2023-01-19T01:40:45;2.10;99.90
2873;DHT22;1444;49.166;7.312;2023-01-19T01:45:40;2.10;99.90
2873;DHT22;1444;49.166;7.312;2023-01-19T01:48:10;2.10;99.90
2873;DHT22;1444;49.166;7.312;2023-01-19T01:50:42;2.10;99.90
2873;DHT22;1444;49.166;7.312;2023-01-19T01:55:59;2.10;99.90
2873;DHT22;1444;49.166;7.312;2023-01-19T01:58:27;2.10;99.90
2873;DHT22;1444;49.166;7.312;2023-01-19T02:03:40;2.20;99.90
2873;DHT22;1444;49.166;7.312;2023-01-19T02:06:07;2.30;99.90
2873;DHT22;1444;49.166;7.312;2023-01-19T02:08:39;2.30;99.90
2873;DHT22;1444;49.166;7.312;2023-01-19T02:11:25;2.20;99.90
2873;DHT22;1444;49.166;7.312;2023-01-19T02:14:10;2.10;99.90
2873;DHT22;1444;49.166;7.312;2023-01-19T02:16:37;3.20;99.90
2873;DHT22;1444;49.166;7.312;2023-01-19T02:19:06;4.10;99.90
2873;DHT22;1444;49.166;7.312;2023-01-19T02:24:06;2.10;99.90
2873;DHT22;1444;49.166;7.312;2023-01-19T02:26:35;2.10;99.90
2873;DHT22;1444;49.166;7.312;2023-01-19T02:29:05;2.00;99.90
2873;DHT22;1444;49.166;7.312;2023-01-19T02:31:33;1.90;99.90
2873;DHT22;1444;49.166;7.312;2023-01-19T02:34:01;1.90;99.90
2873;DHT22;1444;49.166;7.312;2023-01-19T02:36:31;2.00;99.90
2873;DHT22;1444;49.166;7.312;2023-01-19T02:39:01;2.00;99.90
2873;DHT22;1444;49.166;7.312;2023-01-19T02:41:36;1.90;99.90
2873;DHT22;1444;49.166;7.312;2023-01-19T02:44:05;1.90;99.90
2873;DHT22;1444;49.166;7.312;2023-01-19T02:46:33;1.90;99.90
2873;DHT22;1444;49.166;7.312;2023-01-19T02:49:00;1.90;99.90
2873;DHT22;1444;49.166;7.312;2023-01-19T02:56:52;2.00;99.90
2873;DHT22;1444;49.166;7.312;2023-01-19T02:59:34;2.00;99.90
2873;DHT22;1444;49.166;7.312;2023-01-19T03:02:14;2.00;99.90
2873;DHT22;1444;49.166;7.312;2023-01-19T03:07:30;2.00;99.90
2873;DHT22;1444;49.166;7.312;2023-01-19T03:10:04;2.00;99.90
2873;DHT22;1444;49.166;7.312;2023-01-19T03:12:39;2.10;99.90
2873;DHT22;1444;49.166;7.312;2023-01-19T03:15:12;2.20;99.90
2873;DHT22;1444;49.166;7.312;2023-01-19T03:20:10;2.10;99.90
2873;DHT22;1444;49.166;7.312;2023-01-19T03:22:38;2.00;99.90
2873;DHT22;1444;49.166;7.312;2023-01-19T03:25:06;2.00;99.90
2873;DHT22;1444;49.166;7.312;2023-01-19T03:27:36;2.10;99.90
2873;DHT22;1444;49.166;7.312;2023-01-19T03:30:08;2.20;99.90
2873;DHT22;1444;49.166;7.312;2023-01-19T03:32:39;2.10;99.90
2873;DHT22;1444;49.166;7.312;2023-01-19T03:35:10;2.30;99.90
2873;DHT22;1444;49.166;7.312;2023-01-19T03:37:40;2.30;99.90
2873;DHT22;1444;49.166;7.312;2023-01-19T03:40:10;2.30;99.90
2873;DHT22;1444;49.166;7.312;2023-01-19T03:42:39;2.30;99.90
2873;DHT22;1444;49.166;7.312;2023-01-19T03:47:35;2.40;99.90
2873;DHT22;1444;49.166;7.312;2023-01-19T03:52:32;2.40;99.90
2873;DHT22;1444;49.166;7.312;2023-01-19T03:54:59;2.50;99.90
2873;DHT22;1444;49.166;7.312;2023-01-19T03:57:26;2.50;99.90
2873;DHT22;1444;49.166;7.312;2023-01-19T03:59:54;2.50;99.90
2873;DHT22;1444;49.166;7.312;2023-01-19T04:02:21;2.50;99.90
2873;DHT22;1444;49.166;7.312;2023-01-19T04:04:48;2.40;99.90
2873;DHT22;1444;49.166;7.312;2023-01-19T04:07:15;2.30;99.90
2873;DHT22;1444;49.166;7.312;2023-01-19T04:12:09;2.30;99.90
2873;DHT22;1444;49.166;7.312;2023-01-19T04:14:36;2.30;99.90
2873;DHT22;1444;49.166;7.312;2023-01-19T04:17:04;2.20;99.90
2873;DHT22;1444;49.166;7.312;2023-01-19T04:19:31;2.20;99.90
2873;DHT22;1444;49.166;7.312;2023-01-19T04:24:26;2.00;99.90
2873;DHT22;1444;49.166;7.312;2023-01-19T04:26:53;1.90;99.90
2873;DHT22;1444;49.166;7.312;2023-01-19T04:29:19;1.80;99.90
2873;DHT22;1444;49.166;7.312;2023-01-19T04:31:46;1.80;99.90
2873;DHT22;1444;49.166;7.312;2023-01-19T04:41:37;2.00;99.90
2873;DHT22;1444;49.166;7.312;2023-01-19T04:44:04;2.00;99.90
2873;DHT22;1444;49.166;7.312;2023-01-19T04:46:30;2.00;99.90
2873;DHT22;1444;49.166;7.312;2023-01-19T04:51:26;1.90;99.90
2873;DHT22;1444;49.166;7.312;2023-01-19T04:53:53;2.00;99.90
2873;DHT22;1444;49.166;7.312;2023-01-19T04:56:20;2.00;99.90
2873;DHT22;1444;49.166;7.312;2023-01-19T04:58:46;2.00;99.90
2873;DHT22;1444;49.166;7.312;2023-01-19T05:01:13;2.00;99.90
2873;DHT22;1444;49.166;7.312;2023-01-19T05:03:40;2.10;99.90
2873;DHT22;1444;49.166;7.312;2023-01-19T05:06:06;2.00;99.90
2873;DHT22;1444;49.166;7.312;2023-01-19T05:11:02;2.00;99.90
2873;DHT22;1444;49.166;7.312;2023-01-19T05:13:28;2.00;99.90
2873;DHT22;1444;49.166;7.312;2023-01-19T05:15:55;2.10;99.90
2873;DHT22;1444;49.166;7.312;2023-01-19T05:18:22;1.90;99.90
2873;DHT22;1444;49.166;7.312;2023-01-19T05:20:49;2.00;99.90
2873;DHT22;1444;49.166;7.312;2023-01-19T05:23:15;2.00;99.90
2873;DHT22;1444;49.166;7.312;2023-01-19T05:25:44;1.90;99.90
2873;DHT22;1444;49.166;7.312;2023-01-19T05:28:10;1.90;99.90
2873;DHT22;1444;49.166;7.312;2023-01-19T05:30:37;1.90;99.90
2873;DHT22;1444;49.166;7.312;2023-01-19T05:33:04;1.90;99.90
2873;DHT22;1444;49.166;7.312;2023-01-19T05:35:30;2.00;99.90
2873;DHT22;1444;49.166;7.312;2023-01-19T05:40:24;1.90;99.90
2873;DHT22;1444;49.166;7.312;2023-01-19T05:42:52;1.90;99.90
2873;DHT22;1444;49.166;7.312;2023-01-19T05:45:19;1.90;99.90
2873;DHT22;1444;49.166;7.312;2023-01-19T05:47:46;2.00;99.90
2873;DHT22;1444;49.166;7.312;2023-01-19T05:50:12;2.00;99.90
2873;DHT22;1444;49.166;7.312;2023-01-19T05:52:39;2.00;99.90
2873;DHT22;1444;49.166;7.312;2023-01-19T05:55:07;2.00;99.90
2873;DHT22;1444;49.166;7.312;2023-01-19T05:57:33;1.90;99.90
2873;DHT22;1444;49.166;7.312;2023-01-19T06:00:03;1.80;99.90
2873;DHT22;1444;49.166;7.312;2023-01-19T06:02:30;1.90;99.90
2873;DHT22;1444;49.166;7.312;2023-01-19T06:04:56;2.10;99.90
2873;DHT22;1444;49.166;7.312;2023-01-19T06:07:23;2.20;99.90
2873;DHT22;1444;49.166;7.312;2023-01-19T06:09:50;2.20;99.90
2873;DHT22;1444;49.166;7.312;2023-01-19T06:12:17;2.20;99.90
2873;DHT22;1444;49.166;7.312;2023-01-19T06:14:44;2.30;99.90
2873;DHT22;1444;49.166;7.312;2023-01-19T06:17:12;2.30;99.90
2873;DHT22;1444;49.166;7.312;2023-01-19T06:19:38;2.20;99.90
2873;DHT22;1444;49.166;7.312;2023-01-19T06:22:06;2.30;99.90
2873;DHT22;1444;49.166;7.312;2023-01-19T06:24:33;2.20;99.90
2873;DHT22;1444;49.166;7.312;2023-01-19T06:27:00;2.30;99.90
2873;DHT22;1444;49.166;7.312;2023-01-19T06:29:27;5.30;99.90
2873;DHT22;1444;49.166;7.312;2023-01-19T06:31:53;2.30;99.90
2873;DHT22;1444;49.166;7.312;2023-01-19T06:34:22;2.20;99.90
2873;DHT22;1444;49.166;7.312;2023-01-19T06:36:53;2.20;99.90
2873;DHT22;1444;49.166;7.312;2023-01-19T06:39:19;2.20;99.90
2873;DHT22;1444;49.166;7.312;2023-01-19T06:41:46;2.30;99.90
2873;DHT22;1444;49.166;7.312;2023-01-19T06:44:13;2.10;99.90
2873;DHT22;1444;49.166;7.312;2023-01-19T06:46:40;2.10;99.90
2873;DHT22;1444;49.166;7.312;2023-01-19T06:49:06;2.10;99.90
2873;DHT22;1444;49.166;7.312;2023-01-19T06:56:29;2.10;99.90
2873;DHT22;1444;49.166;7.312;2023-01-19T06:58:56;2.10;99.90
2873;DHT22;1444;49.166;7.312;2023-01-19T07:01:23;2.10;99.90
2873;DHT22;1444;49.166;7.312;2023-01-19T07:03:49;2.10;99.90
2873;DHT22;1444;49.166;7.312;2023-01-19T07:06:16;2.20;99.90
2873;DHT22;1444;49.166;7.312;2023-01-19T07:08:44;2.20;99.90
2873;DHT22;1444;49.166;7.312;2023-01-19T07:11:11;2.20;99.90
2873;DHT22;1444;49.166;7.312;2023-01-19T07:13:39;2.30;99.90
2873;DHT22;1444;49.166;7.312;2023-01-19T07:16:07;2.30;99.90
2873;DHT22;1444;49.166;7.312;2023-01-19T07:23:29;2.40;99.90
2873;DHT22;1444;49.166;7.312;2023-01-19T07:25:58;2.40;99.90
2873;DHT22;1444;49.166;7.312;2023-01-19T07:28:26;2.50;99.90
2873;DHT22;1444;49.166;7.312;2023-01-19T07:30:53;2.40;99.90
2873;DHT22;1444;49.166;7.312;2023-01-19T07:33:21;2.40;99.90
2873;DHT22;1444;49.166;7.312;2023-01-19T07:35:48;2.40;99.90
2873;DHT22;1444;49.166;7.312;2023-01-19T07:40:43;2.60;99.90
2873;DHT22;1444;49.166;7.312;2023-01-19T07:43:13;2.60;99.90
2873;DHT22;1444;49.166;7.312;2023-01-19T07:45:40;2.60;99.90
2873;DHT22;1444;49.166;7.312;2023-01-19T07:48:07;2.70;99.90
2873;DHT22;1444;49.166;7.312;2023-01-19T07:50:33;2.70;99.90
2873;DHT22;1444;49.166;7.312;2023-01-19T07:53:04;2.80;99.90
2873;DHT22;1444;49.166;7.312;2023-01-19T07:55:30;2.80;99.90
2873;DHT22;1444;49.166;7.312;2023-01-19T08:00:26;2.90;99.90
2873;DHT22;1444;49.166;7.312;2023-01-19T08:02:58;2.90;99.90
2873;DHT22;1444;49.166;7.312;2023-01-19T08:05:25;2.90;99.90
2873;DHT22;1444;49.166;7.312;2023-01-19T08:07:52;2.90;99.90
2873;DHT22;1444;49.166;7.312;2023-01-19T08:10:20;2.80;99.90
2873;DHT22;1444;49.166;7.312;2023-01-19T08:12:50;2.90;99.90
2873;DHT22;1444;49.166;7.312;2023-01-19T08:15:17;2.80;99.90
2873;DHT22;1444;49.166;7.312;2023-01-19T08:17:45;2.80;99.90
2873;DHT22;1444;49.166;7.312;2023-01-19T08:20:12;2.80;99.90
2873;DHT22;1444;49.166;7.312;2023-01-19T08:22:39;2.80;99.90
2873;DHT22;1444;49.166;7.312;2023-01-19T08:25:06;2.90;99.90
2873;DHT22;1444;49.166;7.312;2023-01-19T08:27:33;2.70;99.90
2873;DHT22;1444;49.166;7.312;2023-01-19T08:30:00;2.50;99.90
2873;DHT22;1444;49.166;7.312;2023-01-19T08:32:27;2.70;99.90
2873;DHT22;1444;49.166;7.312;2023-01-19T08:37:22;2.70;99.90
2873;DHT22;1444;49.166;7.312;2023-01-19T08:39:49;2.80;99.90
2873;DHT22;1444;49.166;7.312;2023-01-19T08:42:18;2.80;99.90
2873;DHT22;1444;49.166;7.312;2023-01-19T08:44:44;2.80;99.90
2873;DHT22;1444;49.166;7.312;2023-01-19T08:49:38;2.80;99.90
2873;DHT22;1444;49.166;7.312;2023-01-19T08:52:07;2.90;99.90
2873;DHT22;1444;49.166;7.312;2023-01-19T09:01:54;2.90;99.90
2873;DHT22;1444;49.166;7.312;2023-01-19T09:04:22;2.90;99.90
2873;DHT22;1444;49.166;7.312;2023-01-19T09:06:49;2.80;99.90
2873;DHT22;1444;49.166;7.312;2023-01-19T09:14:11;2.80;99.90
2873;DHT22;1444;49.166;7.312;2023-01-19T09:16:38;2.80;99.90
2873;DHT22;1444;49.166;7.312;2023-01-19T09:19:05;2.80;99.90
2873;DHT22;1444;49.166;7.312;2023-01-19T09:21:33;2.80;99.90
2873;DHT22;1444;49.166;7.312;2023-01-19T09:23:59;2.80;99.90
2873;DHT22;1444;49.166;7.312;2023-01-19T09:26:27;2.90;99.90
2873;DHT22;1444;49.166;7.312;2023-01-19T09:28:54;2.90;99.90
2873;DHT22;1444;49.166;7.312;2023-01-19T09:31:21;3.00;99.90
2873;DHT22;1444;49.166;7.312;2023-01-19T09:33:48;2.90;99.90
2873;DHT22;1444;49.166;7.312;2023-01-19T09:38:41;3.20;99.90
2873;DHT22;1444;49.166;7.312;2023-01-19T09:41:16;3.20;99.90
2873;DHT22;1444;49.166;7.312;2023-01-19T09:43:49;3.00;99.90
2873;DHT22;1444;49.166;7.312;2023-01-19T09:46:20;3.20;99.90
2873;DHT22;1444;49.166;7.312;2023-01-19T09:51:20;3.20;99.90
2873;DHT22;1444;49.166;7.312;2023-01-19T09:56:32;3.20;99.90
2873;DHT22;1444;49.166;7.312;2023-01-19T09:59:02;3.30;99.90
2873;DHT22;1444;49.166;7.312;2023-01-19T10:01:36;3.30;99.90
2873;DHT22;1444;49.166;7.312;2023-01-19T10:04:31;3.20;99.90
2873;DHT22;1444;49.166;7.312;2023-01-19T10:07:08;3.20;99.90
2873;DHT22;1444;49.166;7.312;2023-01-19T10:09:41;3.30;99.90
2873;DHT22;1444;49.166;7.312;2023-01-19T10:17:27;3.40;99.90
2873;DHT22;1444;49.166;7.312;2023-01-19T10:20:00;3.50;99.90
2873;DHT22;1444;49.166;7.312;2023-01-19T10:22:28;3.60;99.90
2873;DHT22;1444;49.166;7.312;2023-01-19T10:24:57;3.50;99.90
2873;DHT22;1444;49.166;7.312;2023-01-19T10:27:27;3.60;99.90
2873;DHT22;1444;49.166;7.312;2023-01-19T10:29:56;3.60;99.90
2873;DHT22;1444;49.166;7.312;2023-01-19T10:32:25;3.60;99.90
2873;DHT22;1444;49.166;7.312;2023-01-19T10:37:27;3.60;99.90
2873;DHT22;1444;49.166;7.312;2023-01-19T10:39:57;3.50;99.90
2873;DHT22;1444;49.166;7.312;2023-01-19T10:42:27;3.50;99.90
2873;DHT22;1444;49.166;7.312;2023-01-19T10:44:56;4.40;99.90
2873;DHT22;1444;49.166;7.312;2023-01-19T10:47:32;3.40;99.90
2873;DHT22;1444;49.166;7.312;2023-01-19T10:52:32;3.40;99.90
2873;DHT22;1444;49.166;7.312;2023-01-19T10:55:01;3.30;99.90
2873;DHT22;1444;49.166;7.312;2023-01-19T10:57:30;3.40;99.90
2873;DHT22;1444;49.166;7.312;2023-01-19T10:59:59;3.30;99.90
2873;DHT22;1444;49.166;7.312;2023-01-19T11:02:27;3.30;99.90
2873;DHT22;1444;49.166;7.312;2023-01-19T11:04:56;3.40;99.90
2873;DHT22;1444;49.166;7.312;2023-01-19T11:07:27;3.20;99.90
2873;DHT22;1444;49.166;7.312;2023-01-19T11:12:39;3.30;99.90
2873;DHT22;1444;49.166;7.312;2023-01-19T11:17:43;3.30;99.90
2873;DHT22;1444;49.166;7.312;2023-01-19T11:22:46;3.30;99.90
2873;DHT22;1444;49.166;7.312;2023-01-19T11:25:29;3.40;99.90
2873;DHT22;1444;49.166;7.312;2023-01-19T11:27:57;3.40;99.90
2873;DHT22;1444;49.166;7.312;2023-01-19T11:30:26;3.40;99.90
2873;DHT22;1444;49.166;7.312;2023-01-19T11:32:53;4.70;99.90
2873;DHT22;1444;49.166;7.312;2023-01-19T11:35:35;3.50;99.90
2873;DHT22;1444;49.166;7.312;2023-01-19T11:38:16;3.40;99.90
2873;DHT22;1444;49.166;7.312;2023-01-19T11:40:50;3.40;99.90
2873;DHT22;1444;49.166;7.312;2023-01-19T11:43:19;3.70;99.90
2873;DHT22;1444;49.166;7.312;2023-01-19T11:45:47;3.90;99.90
2873;DHT22;1444;49.166;7.312;2023-01-19T11:53:16;4.00;99.90
2873;DHT22;1444;49.166;7.312;2023-01-19T11:58:16;4.20;99.90
2873;DHT22;1444;49.166;7.312;2023-01-19T12:05:46;4.50;99.60
2873;DHT22;1444;49.166;7.312;2023-01-19T12:08:17;4.60;99.80
2873;DHT22;1444;49.166;7.312;2023-01-19T12:10:47;4.70;99.50
2873;DHT22;1444;49.166;7.312;2023-01-19T12:13:20;5.00;99.80
2873;DHT22;1444;49.166;7.312;2023-01-19T12:15:50;5.10;99.50
2873;DHT22;1444;49.166;7.312;2023-01-19T12:18:32;5.00;98.70
2873;DHT22;1444;49.166;7.312;2023-01-19T12:21:00;5.10;98.90
2873;DHT22;1444;49.166;7.312;2023-01-19T12:23:45;5.10;98.70
2873;DHT22;1444;49.166;7.312;2023-01-19T12:31:22;5.20;98.40
2873;DHT22;1444;49.166;7.312;2023-01-19T12:33:50;5.20;98.30
2873;DHT22;1444;49.166;7.312;2023-01-19T12:36:36;5.10;98.70
2873;DHT22;1444;49.166;7.312;2023-01-19T12:39:08;5.10;98.80
2873;DHT22;1444;49.166;7.312;2023-01-19T12:41:38;5.10;98.80
2873;DHT22;1444;49.166;7.312;2023-01-19T12:44:30;5.00;98.50
2873;DHT22;1444;49.166;7.312;2023-01-19T12:46:59;5.00;98.20
2873;DHT22;1444;49.166;7.312;2023-01-19T12:49:33;4.90;98.60
2873;DHT22;1444;49.166;7.312;2023-01-19T12:52:27;4.80;98.80
2873;DHT22;1444;49.166;7.312;2023-01-19T12:55:19;4.70;98.60
2873;DHT22;1444;49.166;7.312;2023-01-19T13:00:29;4.80;98.80
2873;DHT22;1444;49.166;7.312;2023-01-19T13:02:57;4.90;99.20
2873;DHT22;1444;49.166;7.312;2023-01-19T13:05:48;4.80;98.60
2873;DHT22;1444;49.166;7.312;2023-01-19T13:08:20;4.90;98.60
2873;DHT22;1444;49.166;7.312;2023-01-19T13:11:13;4.80;98.60
2873;DHT22;1444;49.166;7.312;2023-01-19T13:13:42;4.80;98.60
2873;DHT22;1444;49.166;7.312;2023-01-19T13:19:34;4.60;98.80
2873;DHT22;1444;49.166;7.312;2023-01-19T13:25:07;4.60;99.10
2873;DHT22;1444;49.166;7.312;2023-01-19T13:27:36;4.50;99.30
2873;DHT22;1444;49.166;7.312;2023-01-19T13:35:12;4.30;99.30
2873;DHT22;1444;49.166;7.312;2023-01-19T13:37:43;4.30;99.60
2873;DHT22;1444;49.166;7.312;2023-01-19T13:40:21;4.20;99.90
2873;DHT22;1444;49.166;7.312;2023-01-19T13:42:50;4.30;99.80
2873;DHT22;1444;49.166;7.312;2023-01-19T13:45:26;4.30;99.90
2873;DHT22;1444;49.166;7.312;2023-01-19T13:47:57;4.30;99.60
2873;DHT22;1444;49.166;7.312;2023-01-19T13:50:27;4.30;99.70
2873;DHT22;1444;49.166;7.312;2023-01-19T13:55:25;4.50;99.50
2873;DHT22;1444;49.166;7.312;2023-01-19T13:57:54;4.40;99.40
2873;DHT22;1444;49.166;7.312;2023-01-19T14:00:23;4.30;99.30
2873;DHT22;1444;49.166;7.312;2023-01-19T14:02:53;4.20;99.40
2873;DHT22;1444;49.166;7.312;2023-01-19T14:05:22;4.20;99.80
2873;DHT22;1444;49.166;7.312;2023-01-19T14:07:59;4.30;99.50
2873;DHT22;1444;49.166;7.312;2023-01-19T14:18:09;4.30;99.70
2873;DHT22;1444;49.166;7.312;2023-01-19T14:20:37;4.20;99.50
2873;DHT22;1444;49.166;7.312;2023-01-19T14:23:05;4.20;99.90
2873;DHT22;1444;49.166;7.312;2023-01-19T14:25:34;4.30;99.90
2873;DHT22;1444;49.166;7.312;2023-01-19T14:28:27;4.20;99.80
2873;DHT22;1444;49.166;7.312;2023-01-19T14:30:55;4.20;99.90
2873;DHT22;1444;49.166;7.312;2023-01-19T14:38:55;4.00;99.50
2873;DHT22;1444;49.166;7.312;2023-01-19T14:41:25;6.50;99.90
2873;DHT22;1444;49.166;7.312;2023-01-19T14:43:54;3.90;99.80
2873;DHT22;1444;49.166;7.312;2023-01-19T14:46:22;4.80;99.90
2873;DHT22;1444;49.166;7.312;2023-01-19T14:48:51;3.90;99.60
2873;DHT22;1444;49.166;7.312;2023-01-19T14:51:21;4.00;99.80
2873;DHT22;1444;49.166;7.312;2023-01-19T14:53:50;3.90;99.60
2873;DHT22;1444;49.166;7.312;2023-01-19T14:56:27;4.00;99.90
2873;DHT22;1444;49.166;7.312;2023-01-19T14:58:54;4.10;99.90
2873;DHT22;1444;49.166;7.312;2023-01-19T15:01:21;4.10;99.80
2873;DHT22;1444;49.166;7.312;2023-01-19T15:03:48;4.20;99.40
2873;DHT22;1444;49.166;7.312;2023-01-19T15:06:16;4.10;99.90
2873;DHT22;1444;49.166;7.312;2023-01-19T15:08:44;4.00;99.50
2873;DHT22;1444;49.166;7.312;2023-01-19T15:11:16;3.90;99.80
2873;DHT22;1444;49.166;7.312;2023-01-19T15:13:47;3.90;99.70
2873;DHT22;1444;49.166;7.312;2023-01-19T15:16:16;4.60;99.80
2873;DHT22;1444;49.166;7.312;2023-01-19T15:18:43;3.80;99.60
2873;DHT22;1444;49.166;7.312;2023-01-19T15:21:11;3.90;99.60
2873;DHT22;1444;49.166;7.312;2023-01-19T15:23:39;4.00;99.60
2873;DHT22;1444;49.166;7.312;2023-01-19T15:26:09;4.60;99.90
2873;DHT22;1444;49.166;7.312;2023-01-19T15:28:38;4.20;99.70
2873;DHT22;1444;49.166;7.312;2023-01-19T15:31:12;4.20;99.50
2873;DHT22;1444;49.166;7.312;2023-01-19T15:33:40;4.30;99.60
2873;DHT22;1444;49.166;7.312;2023-01-19T15:36:11;4.30;99.30
2873;DHT22;1444;49.166;7.312;2023-01-19T15:38:38;4.30;99.50
2873;DHT22;1444;49.166;7.312;2023-01-19T15:41:10;4.10;99.20
2873;DHT22;1444;49.166;7.312;2023-01-19T15:48:33;4.20;99.30
2873;DHT22;1444;49.166;7.312;2023-01-19T15:53:27;4.20;99.50
2873;DHT22;1444;49.166;7.312;2023-01-19T15:55:55;4.20;99.10
2873;DHT22;1444;49.166;7.312;2023-01-19T15:58:22;1.30;97.70
2873;DHT22;1444;49.166;7.312;2023-01-19T16:03:19;3.90;99.20
2873;DHT22;1444;49.166;7.312;2023-01-19T16:05:47;3.90;99.10
2873;DHT22;1444;49.166;7.312;2023-01-19T16:08:14;3.80;99.20
2873;DHT22;1444;49.166;7.312;2023-01-19T16:10:42;3.80;99.10
2873;DHT22;1444;49.166;7.312;2023-01-19T16:13:09;3.70;99.40
2873;DHT22;1444;49.166;7.312;2023-01-19T16:15:37;3.70;99.30
2873;DHT22;1444;49.166;7.312;2023-01-19T16:18:04;3.70;99.30
2873;DHT22;1444;49.166;7.312;2023-01-19T16:20:31;3.70;99.50
2873;DHT22;1444;49.166;7.312;2023-01-19T16:22:59;3.50;99.60
2873;DHT22;1444;49.166;7.312;2023-01-19T16:25:26;3.40;99.60
2873;DHT22;1444;49.166;7.312;2023-01-19T16:27:55;5.70;99.90
2873;DHT22;1444;49.166;7.312;2023-01-19T16:30:22;3.30;99.70
2873;DHT22;1444;49.166;7.312;2023-01-19T16:32:49;3.40;99.90
2873;DHT22;1444;49.166;7.312;2023-01-19T16:35:15;3.50;99.90
2873;DHT22;1444;49.166;7.312;2023-01-19T16:37:42;3.40;99.90
2873;DHT22;1444;49.166;7.312;2023-01-19T16:42:38;3.50;99.90
2873;DHT22;1444;49.166;7.312;2023-01-19T16:45:06;3.40;99.90
2873;DHT22;1444;49.166;7.312;2023-01-19T16:47:33;3.30;99.70
2873;DHT22;1444;49.166;7.312;2023-01-19T16:52:27;3.30;99.90
2873;DHT22;1444;49.166;7.312;2023-01-19T16:54:54;3.40;99.90
2873;DHT22;1444;49.166;7.312;2023-01-19T16:57:22;3.30;99.90
2873;DHT22;1444;49.166;7.312;2023-01-19T17:04:43;3.40;99.90
2873;DHT22;1444;49.166;7.312;2023-01-19T17:07:10;3.40;99.90
2873;DHT22;1444;49.166;7.312;2023-01-19T17:09:36;3.40;99.90
2873;DHT22;1444;49.166;7.312;2023-01-19T17:12:03;3.40;99.90
2873;DHT22;1444;49.166;7.312;2023-01-19T17:14:33;3.40;99.90
2873;DHT22;1444;49.166;7.312;2023-01-19T17:17:01;1.20;99.50
2873;DHT22;1444;49.166;7.312;2023-01-19T17:24:23;3.20;99.90
2873;DHT22;1444;49.166;7.312;2023-01-19T17:26:50;3.20;99.90
2873;DHT22;1444;49.166;7.312;2023-01-19T17:29:17;3.30;99.90
2873;DHT22;1444;49.166;7.312;2023-01-19T17:31:45;3.20;99.90
2873;DHT22;1444;49.166;7.312;2023-01-19T17:34:14;3.20;99.90
2873;DHT22;1444;49.166;7.312;2023-01-19T17:39:11;3.00;99.90
2873;DHT22;1444;49.166;7.312;2023-01-19T17:41:39;2.90;99.90
2873;DHT22;1444;49.166;7.312;2023-01-19T17:44:06;2.90;99.90
2873;DHT22;1444;49.166;7.312;2023-01-19T17:46:35;2.80;99.90
2873;DHT22;1444;49.166;7.312;2023-01-19T17:49:05;2.90;99.90
2873;DHT22;1444;49.166;7.312;2023-01-19T17:51:33;2.80;99.90
2873;DHT22;1444;49.166;7.312;2023-01-19T17:56:29;2.80;99.90
2873;DHT22;1444;49.166;7.312;2023-01-19T17:59:01;3.00;99.90
2873;DHT22;1444;49.166;7.312;2023-01-19T18:01:30;2.80;99.90
2873;DHT22;1444;49.166;7.312;2023-01-19T18:03:57;2.80;99.90
2873;DHT22;1444;49.166;7.312;2023-01-19T18:06:26;2.80;99.90
2873;DHT22;1444;49.166;7.312;2023-01-19T18:08:53;2.90;99.90
2873;DHT22;1444;49.166;7.312;2023-01-19T18:11:20;2.90;99.90
2873;DHT22;1444;49.166;7.312;2023-01-19T18:13:48;3.00;99.90
2873;DHT22;1444;49.166;7.312;2023-01-19T18:18:43;3.20;99.90
2873;DHT22;1444;49.166;7.312;2023-01-19T18:21:12;3.20;99.90
2873;DHT22;1444;49.166;7.312;2023-01-19T18:23:40;3.30;99.90
2873;DHT22;1444;49.166;7.312;2023-01-19T18:26:11;3.10;99.90
2873;DHT22;1444;49.166;7.312;2023-01-19T18:28:38;3.10;99.90
2873;DHT22;1444;49.166;7.312;2023-01-19T18:31:06;3.00;99.90
2873;DHT22;1444;49.166;7.312;2023-01-19T18:33:33;3.10;99.90
2873;DHT22;1444;49.166;7.312;2023-01-19T18:35:59;3.10;99.90
2873;DHT22;1444;49.166;7.312;2023-01-19T18:38:26;3.10;99.90
2873;DHT22;1444;49.166;7.312;2023-01-19T18:41:01;3.00;99.90
2873;DHT22;1444;49.166;7.312;2023-01-19T18:43:28;3.00;99.90
2873;DHT22;1444;49.166;7.312;2023-01-19T18:45:54;3.10;99.90
2873;DHT22;1444;49.166;7.312;2023-01-19T18:48:21;3.20;99.90
2873;DHT22;1444;49.166;7.312;2023-01-19T18:50:48;3.20;99.90
2873;DHT22;1444;49.166;7.312;2023-01-19T18:53:15;3.20;99.90
2873;DHT22;1444;49.166;7.312;2023-01-19T18:55:49;3.30;99.90
2873;DHT22;1444;49.166;7.312;2023-01-19T18:58:17;3.20;99.90
2873;DHT22;1444;49.166;7.312;2023-01-19T19:03:11;3.20;99.90
2873;DHT22;1444;49.166;7.312;2023-01-19T19:10:32;3.30;99.90
2873;DHT22;1444;49.166;7.312;2023-01-19T19:15:27;3.30;99.90
2873;DHT22;1444;49.166;7.312;2023-01-19T19:20:21;3.10;99.90
2873;DHT22;1444;49.166;7.312;2023-01-19T19:22:48;3.00;99.90
2873;DHT22;1444;49.166;7.312;2023-01-19T19:25:16;3.10;99.90
2873;DHT22;1444;49.166;7.312;2023-01-19T19:27:43;3.10;99.90
2873;DHT22;1444;49.166;7.312;2023-01-19T19:30:12;3.20;99.90
2873;DHT22;1444;49.166;7.312;2023-01-19T19:32:40;4.50;99.90
2873;DHT22;1444;49.166;7.312;2023-01-19T19:37:36;3.30;99.90
2873;DHT22;1444;49.166;7.312;2023-01-19T19:40:04;3.40;99.90
2873;DHT22;1444;49.166;7.312;2023-01-19T19:42:31;3.40;99.90
2873;DHT22;1444;49.166;7.312;2023-01-19T19:47:24;3.50;99.90
2873;DHT22;1444;49.166;7.312;2023-01-19T19:52:24;3.70;99.60
2873;DHT22;1444;49.166;7.312;2023-01-19T19:57:19;3.50;99.90
2873;DHT22;1444;49.166;7.312;2023-01-19T19:59:46;3.50;99.90
2873;DHT22;1444;49.166;7.312;2023-01-19T20:02:12;3.50;99.90